Carbonton, North Carolina
Current Conditions -  °F | °C
As of 2:15 PM on Friday 21 Nov 2014 (Local Time) from KTTA Reporting Station
Clear Clear  
Wind Chill: 51°   Ceiling: Unl
Heat Index: 51°   Visibility: 10mi
Dew Point: 11°   Wind: 12mph
Humidity: 21%   Direction: 340°NNW
Pressure: 30.41"   Gusts: NA
Location:  35.493°N, 79.1765°W
Report Text: KTTA 211915Z AUTO 34010KT 10SM CLR 10/M11 A3041 RMK AO2 T01041114
Loading
Personal Weather Stations






























Interactive Weather Map New forecast layout! Learn more

10-Day Weather Forecast

Advertisements
Track Severe Weather on mobile